sensor_id;sensor_type;location;lat;lon;timestamp;pressure;altitude;pressure_sealevel;temperature
41593;BMP180;28026;48.562;14.440;2022-08-20T00:00:43;93531.00;;;24.40
41593;BMP180;28026;48.562;14.440;2022-08-20T00:03:29;93529.00;;;24.40
41593;BMP180;28026;48.562;14.440;2022-08-20T00:06:14;93542.00;;;24.40
41593;BMP180;28026;48.562;14.440;2022-08-20T00:08:50;93514.00;;;24.40
41593;BMP180;28026;48.562;14.440;2022-08-20T00:11:25;93536.00;;;24.30
41593;BMP180;28026;48.562;14.440;2022-08-20T00:14:00;93537.00;;;24.30
41593;BMP180;28026;48.562;14.440;2022-08-20T00:16:35;93522.00;;;24.30
41593;BMP180;28026;48.562;14.440;2022-08-20T00:19:08;93550.00;;;24.30
41593;BMP180;28026;48.562;14.440;2022-08-20T00:21:40;93531.00;;;24.30
41593;BMP180;28026;48.562;14.440;2022-08-20T00:24:11;93531.00;;;24.30
41593;BMP180;28026;48.562;14.440;2022-08-20T00:26:42;93514.00;;;24.30
41593;BMP180;28026;48.562;14.440;2022-08-20T00:29:13;93545.00;;;24.30
41593;BMP180;28026;48.562;14.440;2022-08-20T00:31:46;93527.00;;;24.20
41593;BMP180;28026;48.562;14.440;2022-08-20T00:34:17;93544.00;;;24.20
41593;BMP180;28026;48.562;14.440;2022-08-20T00:36:48;93551.00;;;24.20
41593;BMP180;28026;48.562;14.440;2022-08-20T00:39:19;93544.00;;;24.20
41593;BMP180;28026;48.562;14.440;2022-08-20T00:41:50;93542.00;;;24.20
41593;BMP180;28026;48.562;14.440;2022-08-20T00:44:22;93543.00;;;24.10
41593;BMP180;28026;48.562;14.440;2022-08-20T00:46:53;93549.00;;;24.10
41593;BMP180;28026;48.562;14.440;2022-08-20T00:49:30;93519.00;;;24.00
41593;BMP180;28026;48.562;14.440;2022-08-20T00:52:15;93554.00;;;24.10
41593;BMP180;28026;48.562;14.440;2022-08-20T00:54:54;93532.00;;;24.00
41593;BMP180;28026;48.562;14.440;2022-08-20T00:57:34;93520.00;;;24.10
41593;BMP180;28026;48.562;14.440;2022-08-20T01:00:16;93527.00;;;24.10
41593;BMP180;28026;48.562;14.440;2022-08-20T01:02:52;93511.00;;;24.00
41593;BMP180;28026;48.562;14.440;2022-08-20T01:05:24;93537.00;;;24.00
41593;BMP180;28026;48.562;14.440;2022-08-20T01:07:56;93517.00;;;24.00
41593;BMP180;28026;48.562;14.440;2022-08-20T01:10:35;93554.00;;;24.00
41593;BMP180;28026;48.562;14.440;2022-08-20T01:13:15;93520.00;;;24.00
41593;BMP180;28026;48.562;14.440;2022-08-20T01:15:53;93552.00;;;24.00
41593;BMP180;28026;48.562;14.440;2022-08-20T01:18:26;93555.00;;;24.00
41593;BMP180;28026;48.562;14.440;2022-08-20T01:21:03;93536.00;;;24.00
41593;BMP180;28026;48.562;14.440;2022-08-20T01:23:53;93534.00;;;23.90
41593;BMP180;28026;48.562;14.440;2022-08-20T01:26:39;93540.00;;;23.90
41593;BMP180;28026;48.562;14.440;2022-08-20T01:29:24;93507.00;;;23.90
41593;BMP180;28026;48.562;14.440;2022-08-20T01:32:00;93532.00;;;23.90
41593;BMP180;28026;48.562;14.440;2022-08-20T01:34:32;93527.00;;;23.90
41593;BMP180;28026;48.562;14.440;2022-08-20T01:37:03;93524.00;;;23.90
41593;BMP180;28026;48.562;14.440;2022-08-20T01:39:36;93504.00;;;24.00
41593;BMP180;28026;48.562;14.440;2022-08-20T01:42:36;93511.00;;;24.00
41593;BMP180;28026;48.562;14.440;2022-08-20T01:45:12;93513.00;;;23.90
41593;BMP180;28026;48.562;14.440;2022-08-20T01:47:43;93496.00;;;23.90
41593;BMP180;28026;48.562;14.440;2022-08-20T01:50:23;93510.00;;;23.90
41593;BMP180;28026;48.562;14.440;2022-08-20T01:53:10;93523.00;;;23.90
41593;BMP180;28026;48.562;14.440;2022-08-20T01:55:46;93503.00;;;23.80
41593;BMP180;28026;48.562;14.440;2022-08-20T01:58:17;93521.00;;;23.80
41593;BMP180;28026;48.562;14.440;2022-08-20T02:00:48;93506.00;;;23.70
41593;BMP180;28026;48.562;14.440;2022-08-20T02:03:19;93498.00;;;23.70
41593;BMP180;28026;48.562;14.440;2022-08-20T02:05:51;93509.00;;;23.60
41593;BMP180;28026;48.562;14.440;2022-08-20T02:08:23;93510.00;;;23.60
41593;BMP180;28026;48.562;14.440;2022-08-20T02:10:54;93532.00;;;23.60
41593;BMP180;28026;48.562;14.440;2022-08-20T02:13:25;93521.00;;;23.50
41593;BMP180;28026;48.562;14.440;2022-08-20T02:15:56;93503.00;;;23.50
41593;BMP180;28026;48.562;14.440;2022-08-20T02:18:27;93509.00;;;23.50
41593;BMP180;28026;48.562;14.440;2022-08-20T02:20:59;93528.00;;;23.50
41593;BMP180;28026;48.562;14.440;2022-08-20T02:23:30;93514.00;;;23.60
41593;BMP180;28026;48.562;14.440;2022-08-20T02:26:01;93511.00;;;23.60
41593;BMP180;28026;48.562;14.440;2022-08-20T02:28:33;93514.00;;;23.60
41593;BMP180;28026;48.562;14.440;2022-08-20T02:31:04;93519.00;;;23.60
41593;BMP180;28026;48.562;14.440;2022-08-20T02:33:38;93481.00;;;23.70
41593;BMP180;28026;48.562;14.440;2022-08-20T02:36:11;93480.00;;;23.70
41593;BMP180;28026;48.562;14.440;2022-08-20T02:38:44;93499.00;;;23.70
41593;BMP180;28026;48.562;14.440;2022-08-20T02:41:16;93467.00;;;23.60
41593;BMP180;28026;48.562;14.440;2022-08-20T02:43:48;93480.00;;;23.70
41593;BMP180;28026;48.562;14.440;2022-08-20T02:46:20;93494.00;;;23.60
41593;BMP180;28026;48.562;14.440;2022-08-20T02:48:51;93505.00;;;23.60
41593;BMP180;28026;48.562;14.440;2022-08-20T02:51:24;93499.00;;;23.70
41593;BMP180;28026;48.562;14.440;2022-08-20T02:53:55;93485.00;;;23.70
41593;BMP180;28026;48.562;14.440;2022-08-20T02:56:26;93493.00;;;23.70
41593;BMP180;28026;48.562;14.440;2022-08-20T02:58:57;93493.00;;;23.60
41593;BMP180;28026;48.562;14.440;2022-08-20T03:01:28;93486.00;;;23.60
41593;BMP180;28026;48.562;14.440;2022-08-20T03:04:01;93491.00;;;23.60
41593;BMP180;28026;48.562;14.440;2022-08-20T03:06:33;93488.00;;;23.60
41593;BMP180;28026;48.562;14.440;2022-08-20T03:09:04;93490.00;;;23.60
41593;BMP180;28026;48.562;14.440;2022-08-20T03:11:37;93475.00;;;23.50
41593;BMP180;28026;48.562;14.440;2022-08-20T03:14:09;93463.00;;;23.50
41593;BMP180;28026;48.562;14.440;2022-08-20T03:16:41;93473.00;;;23.40
41593;BMP180;28026;48.562;14.440;2022-08-20T03:19:12;93484.00;;;23.40
41593;BMP180;28026;48.562;14.440;2022-08-20T03:21:43;93494.00;;;23.40
41593;BMP180;28026;48.562;14.440;2022-08-20T03:24:15;93491.00;;;23.40
41593;BMP180;28026;48.562;14.440;2022-08-20T03:26:46;93487.00;;;23.40
41593;BMP180;28026;48.562;14.440;2022-08-20T03:29:17;93496.00;;;23.40
41593;BMP180;28026;48.562;14.440;2022-08-20T03:31:48;93489.00;;;23.40
41593;BMP180;28026;48.562;14.440;2022-08-20T03:34:19;93491.00;;;23.40
41593;BMP180;28026;48.562;14.440;2022-08-20T03:36:50;93498.00;;;23.40
41593;BMP180;28026;48.562;14.440;2022-08-20T03:39:21;93486.00;;;23.40
41593;BMP180;28026;48.562;14.440;2022-08-20T03:41:52;93493.00;;;23.40
41593;BMP180;28026;48.562;14.440;2022-08-20T03:44:23;93495.00;;;23.40
41593;BMP180;28026;48.562;14.440;2022-08-20T03:46:56;93501.00;;;23.40
41593;BMP180;28026;48.562;14.440;2022-08-20T03:49:27;93500.00;;;23.50
41593;BMP180;28026;48.562;14.440;2022-08-20T03:51:58;93484.00;;;23.50
41593;BMP180;28026;48.562;14.440;2022-08-20T03:54:33;93479.00;;;23.50
41593;BMP180;28026;48.562;14.440;2022-08-20T03:57:04;93484.00;;;23.50
41593;BMP180;28026;48.562;14.440;2022-08-20T03:59:35;93471.00;;;23.50
41593;BMP180;28026;48.562;14.440;2022-08-20T04:02:06;93500.00;;;23.60
41593;BMP180;28026;48.562;14.440;2022-08-20T04:04:39;93506.00;;;23.60
41593;BMP180;28026;48.562;14.440;2022-08-20T04:07:17;93502.00;;;23.50
41593;BMP180;28026;48.562;14.440;2022-08-20T04:09:55;93498.00;;;23.40
41593;BMP180;28026;48.562;14.440;2022-08-20T04:12:27;93495.00;;;23.40
41593;BMP180;28026;48.562;14.440;2022-08-20T04:14:58;93475.00;;;23.40
41593;BMP180;28026;48.562;14.440;2022-08-20T04:17:30;93493.00;;;23.40
41593;BMP180;28026;48.562;14.440;2022-08-20T04:20:04;93504.00;;;23.30
41593;BMP180;28026;48.562;14.440;2022-08-20T04:22:37;93492.00;;;23.30
41593;BMP180;28026;48.562;14.440;2022-08-20T04:25:09;93510.00;;;23.30
41593;BMP180;28026;48.562;14.440;2022-08-20T04:27:41;93521.00;;;23.30
41593;BMP180;28026;48.562;14.440;2022-08-20T04:30:13;93519.00;;;23.30
41593;BMP180;28026;48.562;14.440;2022-08-20T04:32:46;93518.00;;;23.20
41593;BMP180;28026;48.562;14.440;2022-08-20T04:35:18;93517.00;;;23.20
41593;BMP180;28026;48.562;14.440;2022-08-20T04:38:04;93520.00;;;23.10
41593;BMP180;28026;48.562;14.440;2022-08-20T04:40:36;93529.00;;;23.20
41593;BMP180;28026;48.562;14.440;2022-08-20T04:43:27;93502.00;;;23.00
41593;BMP180;28026;48.562;14.440;2022-08-20T04:46:06;93511.00;;;23.20
41593;BMP180;28026;48.562;14.440;2022-08-20T04:48:39;93526.00;;;23.30
41593;BMP180;28026;48.562;14.440;2022-08-20T04:51:10;93515.00;;;23.40
41593;BMP180;28026;48.562;14.440;2022-08-20T04:53:45;93506.00;;;23.40
41593;BMP180;28026;48.562;14.440;2022-08-20T04:56:17;93528.00;;;23.40
41593;BMP180;28026;48.562;14.440;2022-08-20T04:58:49;93528.00;;;23.40
41593;BMP180;28026;48.562;14.440;2022-08-20T05:01:23;93514.00;;;23.50
41593;BMP180;28026;48.562;14.440;2022-08-20T05:03:57;93531.00;;;23.60
41593;BMP180;28026;48.562;14.440;2022-08-20T05:06:30;93530.00;;;23.80
41593;BMP180;28026;48.562;14.440;2022-08-20T05:09:02;93516.00;;;23.80
41593;BMP180;28026;48.562;14.440;2022-08-20T05:11:33;93527.00;;;23.80
41593;BMP180;28026;48.562;14.440;2022-08-20T05:14:07;93497.00;;;23.70
41593;BMP180;28026;48.562;14.440;2022-08-20T05:16:39;93533.00;;;23.70
41593;BMP180;28026;48.562;14.440;2022-08-20T05:19:12;93527.00;;;23.70
41593;BMP180;28026;48.562;14.440;2022-08-20T05:21:43;93522.00;;;23.70
41593;BMP180;28026;48.562;14.440;2022-08-20T05:24:14;93538.00;;;23.80
41593;BMP180;28026;48.562;14.440;2022-08-20T05:26:46;93538.00;;;23.70
41593;BMP180;28026;48.562;14.440;2022-08-20T05:29:17;93541.00;;;23.80
41593;BMP180;28026;48.562;14.440;2022-08-20T05:31:48;93543.00;;;23.80
41593;BMP180;28026;48.562;14.440;2022-08-20T05:34:19;93515.00;;;23.70
41593;BMP180;28026;48.562;14.440;2022-08-20T05:36:51;93528.00;;;23.70
41593;BMP180;28026;48.562;14.440;2022-08-20T05:39:22;93523.00;;;23.80
41593;BMP180;28026;48.562;14.440;2022-08-20T05:41:54;93499.00;;;23.80
41593;BMP180;28026;48.562;14.440;2022-08-20T05:44:25;93515.00;;;23.90
41593;BMP180;28026;48.562;14.440;2022-08-20T05:46:56;93522.00;;;23.90
41593;BMP180;28026;48.562;14.440;2022-08-20T05:49:27;93491.00;;;24.00
41593;BMP180;28026;48.562;14.440;2022-08-20T05:51:58;93496.00;;;24.00
41593;BMP180;28026;48.562;14.440;2022-08-20T05:54:29;93521.00;;;24.10
41593;BMP180;28026;48.562;14.440;2022-08-20T05:57:01;93531.00;;;24.10
41593;BMP180;28026;48.562;14.440;2022-08-20T05:59:32;93529.00;;;24.10
41593;BMP180;28026;48.562;14.440;2022-08-20T06:02:06;93525.00;;;24.20
41593;BMP180;28026;48.562;14.440;2022-08-20T06:04:57;93506.00;;;24.20
41593;BMP180;28026;48.562;14.440;2022-08-20T06:07:28;93531.00;;;24.20
41593;BMP180;28026;48.562;14.440;2022-08-20T06:09:59;93553.00;;;24.20
41593;BMP180;28026;48.562;14.440;2022-08-20T06:12:31;93559.00;;;24.20
41593;BMP180;28026;48.562;14.440;2022-08-20T06:15:04;93554.00;;;24.40
41593;BMP180;28026;48.562;14.440;2022-08-20T06:17:37;93549.00;;;24.40
41593;BMP180;28026;48.562;14.440;2022-08-20T06:20:09;93558.00;;;24.60
41593;BMP180;28026;48.562;14.440;2022-08-20T06:22:41;93560.00;;;24.50
41593;BMP180;28026;48.562;14.440;2022-08-20T06:25:12;93569.00;;;24.40
41593;BMP180;28026;48.562;14.440;2022-08-20T06:27:43;93564.00;;;24.40
41593;BMP180;28026;48.562;14.440;2022-08-20T06:30:14;93578.00;;;24.40
41593;BMP180;28026;48.562;14.440;2022-08-20T06:32:46;93576.00;;;24.30
41593;BMP180;28026;48.562;14.440;2022-08-20T06:35:19;93564.00;;;24.30
41593;BMP180;28026;48.562;14.440;2022-08-20T06:37:50;93571.00;;;24.30
41593;BMP180;28026;48.562;14.440;2022-08-20T06:40:26;93569.00;;;24.30
41593;BMP180;28026;48.562;14.440;2022-08-20T06:42:59;93564.00;;;24.30
41593;BMP180;28026;48.562;14.440;2022-08-20T06:45:31;93567.00;;;24.30
41593;BMP180;28026;48.562;14.440;2022-08-20T06:48:09;93559.00;;;24.30
41593;BMP180;28026;48.562;14.440;2022-08-20T06:50:46;93548.00;;;24.40
41593;BMP180;28026;48.562;14.440;2022-08-20T06:53:19;93575.00;;;24.40
41593;BMP180;28026;48.562;14.440;2022-08-20T06:55:53;93586.00;;;24.40
41593;BMP180;28026;48.562;14.440;2022-08-20T06:58:26;93585.00;;;24.40
41593;BMP180;28026;48.562;14.440;2022-08-20T07:01:01;93556.00;;;24.50
41593;BMP180;28026;48.562;14.440;2022-08-20T07:03:32;93579.00;;;24.60
41593;BMP180;28026;48.562;14.440;2022-08-20T07:06:04;93584.00;;;24.70
41593;BMP180;28026;48.562;14.440;2022-08-20T07:08:36;93597.00;;;24.70
41593;BMP180;28026;48.562;14.440;2022-08-20T07:11:08;93568.00;;;24.70
41593;BMP180;28026;48.562;14.440;2022-08-20T07:13:40;93570.00;;;24.70
41593;BMP180;28026;48.562;14.440;2022-08-20T07:16:11;93601.00;;;24.70
41593;BMP180;28026;48.562;14.440;2022-08-20T07:18:42;93602.00;;;24.70
41593;BMP180;28026;48.562;14.440;2022-08-20T07:21:13;93570.00;;;24.70
41593;BMP180;28026;48.562;14.440;2022-08-20T07:23:46;93568.00;;;24.80
41593;BMP180;28026;48.562;14.440;2022-08-20T07:26:19;93571.00;;;24.80
41593;BMP180;28026;48.562;14.440;2022-08-20T07:28:50;93575.00;;;24.70
41593;BMP180;28026;48.562;14.440;2022-08-20T07:31:21;93595.00;;;24.80
41593;BMP180;28026;48.562;14.440;2022-08-20T07:34:11;93594.00;;;24.80
41593;BMP180;28026;48.562;14.440;2022-08-20T07:36:43;93575.00;;;24.80
41593;BMP180;28026;48.562;14.440;2022-08-20T07:39:14;93603.00;;;24.80
41593;BMP180;28026;48.562;14.440;2022-08-20T07:41:45;93569.00;;;24.80
41593;BMP180;28026;48.562;14.440;2022-08-20T07:44:32;93575.00;;;24.80
41593;BMP180;28026;48.562;14.440;2022-08-20T07:47:03;93574.00;;;24.80
41593;BMP180;28026;48.562;14.440;2022-08-20T07:49:39;93570.00;;;24.80
41593;BMP180;28026;48.562;14.440;2022-08-20T07:52:10;93581.00;;;24.80
41593;BMP180;28026;48.562;14.440;2022-08-20T07:54:42;93598.00;;;24.80
41593;BMP180;28026;48.562;14.440;2022-08-20T07:57:14;93584.00;;;24.80
41593;BMP180;28026;48.562;14.440;2022-08-20T07:59:47;93615.00;;;24.80
41593;BMP180;28026;48.562;14.440;2022-08-20T08:02:18;93610.00;;;24.80
41593;BMP180;28026;48.562;14.440;2022-08-20T08:04:50;93587.00;;;24.80
41593;BMP180;28026;48.562;14.440;2022-08-20T08:07:22;93606.00;;;24.80
41593;BMP180;28026;48.562;14.440;2022-08-20T08:09:56;93588.00;;;24.80
41593;BMP180;28026;48.562;14.440;2022-08-20T08:12:36;93579.00;;;24.80
41593;BMP180;28026;48.562;14.440;2022-08-20T08:15:26;93584.00;;;24.80
41593;BMP180;28026;48.562;14.440;2022-08-20T08:18:08;93615.00;;;24.80
41593;BMP180;28026;48.562;14.440;2022-08-20T08:20:44;93574.00;;;24.90
41593;BMP180;28026;48.562;14.440;2022-08-20T08:23:15;93589.00;;;24.90
41593;BMP180;28026;48.562;14.440;2022-08-20T08:25:46;93591.00;;;25.00
41593;BMP180;28026;48.562;14.440;2022-08-20T08:28:19;93612.00;;;25.00
41593;BMP180;28026;48.562;14.440;2022-08-20T08:30:50;93590.00;;;25.10
41593;BMP180;28026;48.562;14.440;2022-08-20T08:33:25;93587.00;;;25.20
41593;BMP180;28026;48.562;14.440;2022-08-20T08:36:12;93601.00;;;25.30
41593;BMP180;28026;48.562;14.440;2022-08-20T08:38:45;93610.00;;;25.40
41593;BMP180;28026;48.562;14.440;2022-08-20T08:44:24;93626.00;;;25.70
41593;BMP180;28026;48.562;14.440;2022-08-20T08:47:39;93624.00;;;25.70
41593;BMP180;28026;48.562;14.440;2022-08-20T08:50:25;93618.00;;;25.60
41593;BMP180;28026;48.562;14.440;2022-08-20T08:53:01;93616.00;;;25.40
41593;BMP180;28026;48.562;14.440;2022-08-20T08:55:32;93598.00;;;25.30
41593;BMP180;28026;48.562;14.440;2022-08-20T08:58:03;93609.00;;;25.10
41593;BMP180;28026;48.562;14.440;2022-08-20T09:00:35;93581.00;;;25.20
41593;BMP180;28026;48.562;14.440;2022-08-20T09:03:16;93575.00;;;25.20
41593;BMP180;28026;48.562;14.440;2022-08-20T09:05:59;93588.00;;;25.40
41593;BMP180;28026;48.562;14.440;2022-08-20T09:11:11;93593.00;;;25.60
41593;BMP180;28026;48.562;14.440;2022-08-20T09:13:43;93598.00;;;25.60
41593;BMP180;28026;48.562;14.440;2022-08-20T09:16:15;93591.00;;;25.50
41593;BMP180;28026;48.562;14.440;2022-08-20T09:18:46;93586.00;;;25.40
41593;BMP180;28026;48.562;14.440;2022-08-20T09:21:18;93612.00;;;25.30
41593;BMP180;28026;48.562;14.440;2022-08-20T09:23:49;93596.00;;;25.20
41593;BMP180;28026;48.562;14.440;2022-08-20T09:26:20;93602.00;;;25.10
41593;BMP180;28026;48.562;14.440;2022-08-20T09:28:51;93587.00;;;25.10
41593;BMP180;28026;48.562;14.440;2022-08-20T09:31:22;93593.00;;;25.00
41593;BMP180;28026;48.562;14.440;2022-08-20T09:33:54;93583.00;;;24.90
41593;BMP180;28026;48.562;14.440;2022-08-20T09:36:25;93624.00;;;24.90
41593;BMP180;28026;48.562;14.440;2022-08-20T09:38:57;93602.00;;;24.80
41593;BMP180;28026;48.562;14.440;2022-08-20T09:41:30;93600.00;;;24.80
41593;BMP180;28026;48.562;14.440;2022-08-20T09:44:01;93629.00;;;24.80
41593;BMP180;28026;48.562;14.440;2022-08-20T09:46:32;93633.00;;;24.80
41593;BMP180;28026;48.562;14.440;2022-08-20T09:49:03;93645.00;;;24.80
41593;BMP180;28026;48.562;14.440;2022-08-20T09:51:34;93612.00;;;24.80
41593;BMP180;28026;48.562;14.440;2022-08-20T09:54:05;93611.00;;;24.90
41593;BMP180;28026;48.562;14.440;2022-08-20T09:56:36;93649.00;;;25.00
41593;BMP180;28026;48.562;14.440;2022-08-20T09:59:07;93649.00;;;25.00
41593;BMP180;28026;48.562;14.440;2022-08-20T10:01:38;93641.00;;;24.90
41593;BMP180;28026;48.562;14.440;2022-08-20T10:04:09;93650.00;;;24.90
41593;BMP180;28026;48.562;14.440;2022-08-20T10:06:41;93648.00;;;24.90
41593;BMP180;28026;48.562;14.440;2022-08-20T10:09:12;93642.00;;;24.90
41593;BMP180;28026;48.562;14.440;2022-08-20T10:11:44;93645.00;;;24.90
41593;BMP180;28026;48.562;14.440;2022-08-20T10:14:15;93636.00;;;24.90
41593;BMP180;28026;48.562;14.440;2022-08-20T10:16:46;93647.00;;;25.00
41593;BMP180;28026;48.562;14.440;2022-08-20T10:19:25;93651.00;;;25.10
41593;BMP180;28026;48.562;14.440;2022-08-20T10:21:58;93651.00;;;25.10
41593;BMP180;28026;48.562;14.440;2022-08-20T10:24:29;93655.00;;;25.10
41593;BMP180;28026;48.562;14.440;2022-08-20T10:27:01;93652.00;;;25.10
41593;BMP180;28026;48.562;14.440;2022-08-20T10:29:33;93650.00;;;25.10
41593;BMP180;28026;48.562;14.440;2022-08-20T10:32:14;93657.00;;;25.10
41593;BMP180;28026;48.562;14.440;2022-08-20T10:34:46;93665.00;;;25.20
41593;BMP180;28026;48.562;14.440;2022-08-20T10:37:23;93664.00;;;25.20
41593;BMP180;28026;48.562;14.440;2022-08-20T10:39:56;93650.00;;;25.20
41593;BMP180;28026;48.562;14.440;2022-08-20T10:42:27;93669.00;;;25.30
41593;BMP180;28026;48.562;14.440;2022-08-20T10:44:58;93663.00;;;25.30
41593;BMP180;28026;48.562;14.440;2022-08-20T10:47:31;93677.00;;;25.40
41593;BMP180;28026;48.562;14.440;2022-08-20T10:50:07;93682.00;;;25.40
41593;BMP180;28026;48.562;14.440;2022-08-20T10:52:40;93682.00;;;25.40
41593;BMP180;28026;48.562;14.440;2022-08-20T10:55:11;93683.00;;;25.40
41593;BMP180;28026;48.562;14.440;2022-08-20T10:57:43;93686.00;;;25.50
41593;BMP180;28026;48.562;14.440;2022-08-20T11:00:17;93685.00;;;25.40
41593;BMP180;28026;48.562;14.440;2022-08-20T11:02:49;93685.00;;;25.40
41593;BMP180;28026;48.562;14.440;2022-08-20T11:05:20;93694.00;;;25.40
41593;BMP180;28026;48.562;14.440;2022-08-20T11:07:51;93690.00;;;25.50
41593;BMP180;28026;48.562;14.440;2022-08-20T11:10:27;93684.00;;;25.50
41593;BMP180;28026;48.562;14.440;2022-08-20T11:13:05;93686.00;;;25.50
41593;BMP180;28026;48.562;14.440;2022-08-20T11:15:40;93684.00;;;25.50
41593;BMP180;28026;48.562;14.440;2022-08-20T11:18:13;93689.00;;;25.50
41593;BMP180;28026;48.562;14.440;2022-08-20T11:20:44;93696.00;;;25.60
41593;BMP180;28026;48.562;14.440;2022-08-20T11:23:15;93694.00;;;25.60
41593;BMP180;28026;48.562;14.440;2022-08-20T11:25:47;93684.00;;;25.60
41593;BMP180;28026;48.562;14.440;2022-08-20T11:28:19;93701.00;;;25.60
41593;BMP180;28026;48.562;14.440;2022-08-20T11:30:50;93689.00;;;25.60
41593;BMP180;28026;48.562;14.440;2022-08-20T11:33:21;93690.00;;;25.60
41593;BMP180;28026;48.562;14.440;2022-08-20T11:35:52;93688.00;;;25.70
41593;BMP180;28026;48.562;14.440;2022-08-20T11:38:23;93682.00;;;25.60
41593;BMP180;28026;48.562;14.440;2022-08-20T11:40:53;93686.00;;;25.60
41593;BMP180;28026;48.562;14.440;2022-08-20T11:43:25;93682.00;;;25.50
41593;BMP180;28026;48.562;14.440;2022-08-20T11:45:56;93691.00;;;25.50
41593;BMP180;28026;48.562;14.440;2022-08-20T11:48:27;93692.00;;;25.50
41593;BMP180;28026;48.562;14.440;2022-08-20T11:50:58;93702.00;;;25.50
41593;BMP180;28026;48.562;14.440;2022-08-20T11:53:29;93700.00;;;25.50
41593;BMP180;28026;48.562;14.440;2022-08-20T11:56:01;93694.00;;;25.40
41593;BMP180;28026;48.562;14.440;2022-08-20T11:58:32;93705.00;;;25.30
41593;BMP180;28026;48.562;14.440;2022-08-20T12:01:03;93694.00;;;25.30
41593;BMP180;28026;48.562;14.440;2022-08-20T12:03:35;93705.00;;;25.30
41593;BMP180;28026;48.562;14.440;2022-08-20T12:06:06;93712.00;;;25.30
41593;BMP180;28026;48.562;14.440;2022-08-20T12:08:37;93696.00;;;25.30
41593;BMP180;28026;48.562;14.440;2022-08-20T12:11:08;93723.00;;;25.30
41593;BMP180;28026;48.562;14.440;2022-08-20T12:13:39;93716.00;;;25.30
41593;BMP180;28026;48.562;14.440;2022-08-20T12:16:10;93709.00;;;25.20
41593;BMP180;28026;48.562;14.440;2022-08-20T12:18:41;93712.00;;;25.30
41593;BMP180;28026;48.562;14.440;2022-08-20T12:21:13;93714.00;;;25.30
41593;BMP180;28026;48.562;14.440;2022-08-20T12:23:44;93708.00;;;25.40
41593;BMP180;28026;48.562;14.440;2022-08-20T12:26:16;93715.00;;;25.50
41593;BMP180;28026;48.562;14.440;2022-08-20T12:28:47;93711.00;;;25.50
41593;BMP180;28026;48.562;14.440;2022-08-20T12:31:18;93713.00;;;25.60
41593;BMP180;28026;48.562;14.440;2022-08-20T12:33:49;93719.00;;;25.50
41593;BMP180;28026;48.562;14.440;2022-08-20T12:36:20;93714.00;;;25.50
41593;BMP180;28026;48.562;14.440;2022-08-20T12:38:51;93720.00;;;25.50
41593;BMP180;28026;48.562;14.440;2022-08-20T12:41:22;93724.00;;;25.50
41593;BMP180;28026;48.562;14.440;2022-08-20T12:43:53;93727.00;;;25.60
41593;BMP180;28026;48.562;14.440;2022-08-20T12:46:24;93725.00;;;25.60
41593;BMP180;28026;48.562;14.440;2022-08-20T12:48:54;93727.00;;;25.60
41593;BMP180;28026;48.562;14.440;2022-08-20T12:51:25;93724.00;;;25.60
41593;BMP180;28026;48.562;14.440;2022-08-20T12:53:56;93731.00;;;25.60
41593;BMP180;28026;48.562;14.440;2022-08-20T12:56:28;93730.00;;;25.60
41593;BMP180;28026;48.562;14.440;2022-08-20T12:58:59;93727.00;;;25.60
41593;BMP180;28026;48.562;14.440;2022-08-20T13:01:30;93732.00;;;25.60
41593;BMP180;28026;48.562;14.440;2022-08-20T13:04:01;93739.00;;;25.50
41593;BMP180;28026;48.562;14.440;2022-08-20T13:06:32;93744.00;;;25.50
41593;BMP180;28026;48.562;14.440;2022-08-20T13:09:03;93742.00;;;25.50
41593;BMP180;28026;48.562;14.440;2022-08-20T13:11:34;93731.00;;;25.50
41593;BMP180;28026;48.562;14.440;2022-08-20T13:14:05;93745.00;;;25.50
41593;BMP180;28026;48.562;14.440;2022-08-20T13:16:36;93741.00;;;25.50
41593;BMP180;28026;48.562;14.440;2022-08-20T13:19:07;93747.00;;;25.40
41593;BMP180;28026;48.562;14.440;2022-08-20T13:21:38;93740.00;;;25.40
41593;BMP180;28026;48.562;14.440;2022-08-20T13:24:09;93736.00;;;25.50
41593;BMP180;28026;48.562;14.440;2022-08-20T13:26:40;93738.00;;;25.50
41593;BMP180;28026;48.562;14.440;2022-08-20T13:29:11;93739.00;;;25.50
41593;BMP180;28026;48.562;14.440;2022-08-20T13:31:44;93732.00;;;25.50
41593;BMP180;28026;48.562;14.440;2022-08-20T13:34:15;93742.00;;;25.50
41593;BMP180;28026;48.562;14.440;2022-08-20T13:36:46;93739.00;;;25.60
41593;BMP180;28026;48.562;14.440;2022-08-20T13:39:17;93745.00;;;25.60
41593;BMP180;28026;48.562;14.440;2022-08-20T13:41:48;93747.00;;;25.70
41593;BMP180;28026;48.562;14.440;2022-08-20T13:44:20;93751.00;;;25.80
41593;BMP180;28026;48.562;14.440;2022-08-20T13:46:51;93743.00;;;25.90
41593;BMP180;28026;48.562;14.440;2022-08-20T13:49:23;93739.00;;;25.90
41593;BMP180;28026;48.562;14.440;2022-08-20T13:51:54;93730.00;;;25.90
41593;BMP180;28026;48.562;14.440;2022-08-20T13:54:25;93725.00;;;25.80
41593;BMP180;28026;48.562;14.440;2022-08-20T13:57:12;93727.00;;;25.80
41593;BMP180;28026;48.562;14.440;2022-08-20T13:59:50;93737.00;;;25.70
41593;BMP180;28026;48.562;14.440;2022-08-20T14:02:25;93728.00;;;25.70
41593;BMP180;28026;48.562;14.440;2022-08-20T14:04:56;93727.00;;;25.70
41593;BMP180;28026;48.562;14.440;2022-08-20T14:07:29;93727.00;;;25.70
41593;BMP180;28026;48.562;14.440;2022-08-20T14:10:09;93732.00;;;25.70
41593;BMP180;28026;48.562;14.440;2022-08-20T14:12:42;93717.00;;;25.60
41593;BMP180;28026;48.562;14.440;2022-08-20T14:15:14;93717.00;;;25.60
41593;BMP180;28026;48.562;14.440;2022-08-20T14:17:51;93719.00;;;25.70
41593;BMP180;28026;48.562;14.440;2022-08-20T14:20:29;93725.00;;;25.80
41593;BMP180;28026;48.562;14.440;2022-08-20T14:23:02;93719.00;;;25.80
41593;BMP180;28026;48.562;14.440;2022-08-20T14:25:33;93718.00;;;25.90
41593;BMP180;28026;48.562;14.440;2022-08-20T14:28:20;93716.00;;;25.80
41593;BMP180;28026;48.562;14.440;2022-08-20T14:30:52;93723.00;;;25.80
41593;BMP180;28026;48.562;14.440;2022-08-20T14:33:24;93714.00;;;25.80
41593;BMP180;28026;48.562;14.440;2022-08-20T14:35:55;93711.00;;;25.80